Terminal Aerodrome Forecast
Issued by NWS Missoula, MT

Current Version | Previous Version | Text Only | Print | Product List | Glossary On
Versions: 1 2 3 4 5 6 7 8 9 10 11 12 13 14 15 16 17 18 19 20
059
FTUS45 KMSO 181132
TAFMSO
TAF
KMSO 181132Z 1812/1912 18008KT P6SM -FZRAPL OVC040
     FM181600 26010KT P6SM -RA SCT025 OVC050
     FM181800 25010KT P6SM -SHRASN BKN060
     FM190000 25005KT P6SM VCSH BKN060
     FM190400 VRB03KT 4SM -SN BKN020 OVC030=

USA.gov is the U.S. government's official web portal to all federal, state and local government web resources and services.